Time;durP1;ratioP1;P1;durP2;ratioP2;P2;SDS_P1;SDS_P2;PMS_P1;PMS_P2;Temp;Humidity;BMP_temperature;BMP_pressure;BME280_temperature;BME280_humidity;BME280_pressure;Samples;Min_cycle;Max_cycle;Signal;HPM_P1;HPM_P2
2021/12/28 00:01:59;;;;;;;28.98;5.03;;;11.80;99.90;;;;;;4955596;28;20546;-77
2021/12/28 00:04:24;;;;;;;39.50;5.60;;;11.90;99.90;;;;;;4955248;28;20209;-78
2021/12/28 00:06:50;;;;;;;37.05;5.45;;;12.00;99.90;;;;;;4955512;28;20162;-78
2021/12/28 00:09:15;;;;;;;39.38;5.10;;;11.90;99.90;;;;;;4955910;28;20523;-78
2021/12/28 00:11:41;;;;;;;23.63;4.65;;;11.70;99.90;;;;;;4954342;28;20194;-78
2021/12/28 00:14:07;;;;;;;35.90;4.95;;;11.70;99.90;;;;;;4954565;28;20194;-78
2021/12/28 00:19:27;;;;;;;25.13;4.78;;;11.80;99.90;;;;;;4986512;28;20197;-78
2021/12/28 00:21:53;;;;;;;23.75;4.30;;;12.00;99.90;;;;;;4954642;28;20178;-78
2021/12/28 00:24:19;;;;;;;25.40;4.45;;;11.80;99.90;;;;;;4954262;28;20534;-78
2021/12/28 00:26:44;;;;;;;23.67;4.78;;;11.90;99.90;;;;;;4954344;28;20177;-78
2021/12/28 00:29:10;;;;;;;31.55;5.13;;;11.90;99.90;;;;;;4954328;28;20194;-78
2021/12/28 00:31:36;;;;;;;23.48;5.10;;;11.70;99.90;;;;;;4954538;29;20175;-78
2021/12/28 00:34:01;;;;;;;36.80;5.35;;;11.80;99.90;;;;;;4954295;28;20167;-78
2021/12/28 00:36:27;;;;;;;26.48;4.63;;;11.80;99.90;;;;;;4953165;28;20184;-81
2021/12/28 00:38:52;;;;;;;20.55;3.17;;;11.80;99.90;;;;;;4954073;28;20190;-78
2021/12/28 00:41:18;;;;;;;31.10;4.85;;;11.90;99.90;;;;;;4954155;28;20213;-78
2021/12/28 00:43:44;;;;;;;27.52;4.97;;;12.00;99.90;;;;;;4954287;28;20226;-78
2021/12/28 00:46:10;;;;;;;22.13;4.85;;;12.10;99.90;;;;;;4954227;28;20182;-78
2021/12/28 00:48:36;;;;;;;20.73;4.65;;;12.10;99.90;;;;;;4954154;28;20218;-79
2021/12/28 00:51:03;;;;;;;27.52;4.38;;;12.20;99.90;;;;;;4954029;28;20179;-78
2021/12/28 00:53:29;;;;;;;49.33;5.55;;;12.00;99.90;;;;;;4954048;28;20574;-78
2021/12/28 00:55:55;;;;;;;22.75;4.10;;;12.10;99.90;;;;;;4954080;28;20321;-81
2021/12/28 00:58:21;;;;;;;38.83;5.93;;;12.10;99.90;;;;;;4954076;28;20187;-79
2021/12/28 01:00:47;;;;;;;31.23;4.32;;;12.00;99.90;;;;;;4953898;28;20578;-78
2021/12/28 01:03:14;;;;;;;24.95;4.20;;;12.00;99.90;;;;;;4953468;28;20163;-78
2021/12/28 01:05:40;;;;;;;23.25;3.75;;;12.00;99.90;;;;;;4953167;28;20528;-77
2021/12/28 01:08:07;;;;;;;29.58;4.10;;;12.00;99.90;;;;;;4953148;28;20182;-77
2021/12/28 01:10:37;;;;;;;26.85;3.03;;;11.80;99.90;;;;;;4956291;28;20670;-78
2021/12/28 01:13:03;;;;;;;35.83;4.43;;;11.70;99.90;;;;;;4960395;28;20518;-78
2021/12/28 01:15:30;;;;;;;26.60;3.72;;;11.70;99.90;;;;;;4960671;28;20214;-78
2021/12/28 01:17:56;;;;;;;35.30;5.25;;;11.90;99.90;;;;;;4961101;28;20201;-79
2021/12/28 01:20:22;;;;;;;16.83;3.97;;;12.00;99.90;;;;;;4955372;28;20675;-77
2021/12/28 01:22:49;;;;;;;22.05;3.30;;;11.90;99.90;;;;;;4955457;28;20175;-80
2021/12/28 01:25:16;;;;;;;22.92;4.55;;;11.90;99.90;;;;;;4960137;28;20561;-78
2021/12/28 01:27:43;;;;;;;31.08;4.18;;;12.00;99.90;;;;;;4957575;28;20169;-81
2021/12/28 01:30:10;;;;;;;22.70;4.20;;;11.90;99.90;;;;;;4956656;28;20269;-77
2021/12/28 01:32:36;;;;;;;27.58;3.63;;;11.90;99.90;;;;;;4956785;28;20170;-77
2021/12/28 01:35:05;;;;;;;21.88;4.45;;;11.80;99.90;;;;;;4957721;28;20666;-77
2021/12/28 01:37:30;;;;;;;21.15;3.50;;;12.00;99.90;;;;;;4956787;28;20171;-77
2021/12/28 01:39:56;;;;;;;25.77;4.22;;;12.00;99.90;;;;;;4957803;28;20221;-77
2021/12/28 01:42:22;;;;;;;19.60;3.83;;;11.90;99.90;;;;;;4958359;28;20177;-77
2021/12/28 01:44:47;;;;;;;22.05;3.92;;;12.00;99.90;;;;;;4958421;28;20189;-78
2021/12/28 01:47:16;;;;;;;22.10;3.25;;;12.00;99.90;;;;;;4958246;28;20167;-77
2021/12/28 01:49:41;;;;;;;13.93;3.15;;;12.00;99.90;;;;;;4956674;28;20702;-78
2021/12/28 01:52:07;;;;;;;14.05;3.83;;;11.80;99.90;;;;;;4956616;28;20178;-81
2021/12/28 01:54:33;;;;;;;14.68;3.75;;;11.70;99.90;;;;;;4956145;28;20226;-80
2021/12/28 01:56:58;;;;;;;12.52;2.80;;;11.80;99.90;;;;;;4956659;28;20253;-77
2021/12/28 01:59:24;;;;;;;19.42;2.80;;;11.80;99.90;;;;;;4956717;28;20191;-77
2021/12/28 02:01:50;;;;;;;14.63;2.88;;;11.80;99.90;;;;;;4956817;28;20226;-78
2021/12/28 02:04:21;;;;;;;15.75;3.20;;;11.80;99.90;;;;;;4956764;28;20171;-78
2021/12/28 02:06:48;;;;;;;17.92;2.13;;;11.80;99.90;;;;;;4956675;28;20181;-78
2021/12/28 02:09:14;;;;;;;20.48;2.65;;;11.70;99.90;;;;;;4956366;28;20198;-78
2021/12/28 02:11:40;;;;;;;15.35;2.35;;;11.80;99.90;;;;;;4956591;28;20175;-78
2021/12/28 02:14:08;;;;;;;25.30;2.53;;;11.60;99.90;;;;;;4956987;28;20198;-79
2021/12/28 02:16:36;;;;;;;11.65;2.63;;;11.70;99.90;;;;;;4955129;28;20604;-78
2021/12/28 02:19:03;;;;;;;12.25;2.50;;;11.80;99.90;;;;;;4956372;28;20186;-78
2021/12/28 02:21:32;;;;;;;20.40;3.10;;;11.90;99.90;;;;;;4956350;28;20171;-77
2021/12/28 02:23:59;;;;;;;15.77;2.70;;;12.00;99.90;;;;;;4956204;28;20170;-77
2021/12/28 02:26:26;;;;;;;12.48;2.25;;;11.80;99.90;;;;;;4956260;28;20209;-77
2021/12/28 02:28:52;;;;;;;20.27;3.08;;;11.80;99.90;;;;;;4956048;28;20191;-78
2021/12/28 02:31:17;;;;;;;12.45;2.00;;;11.80;99.90;;;;;;4956180;28;20193;-78
2021/12/28 02:33:46;;;;;;;14.70;2.33;;;12.00;99.90;;;;;;4955835;28;20178;-81
2021/12/28 02:36:12;;;;;;;12.05;2.70;;;12.00;99.90;;;;;;4955513;28;20210;-77
2021/12/28 02:38:37;;;;;;;12.73;2.72;;;12.00;99.90;;;;;;4955952;28;20585;-77
2021/12/28 02:41:03;;;;;;;13.27;2.78;;;12.00;99.90;;;;;;4956066;28;20611;-78
2021/12/28 02:43:29;;;;;;;8.30;1.77;;;12.10;99.90;;;;;;4955885;28;20632;-78
2021/12/28 02:46:02;;;;;;;10.52;2.40;;;12.00;99.90;;;;;;4955929;28;20253;-81
2021/12/28 02:48:29;;;;;;;12.52;2.53;;;12.00;99.90;;;;;;4955528;28;20605;-78
2021/12/28 02:50:58;;;;;;;16.05;2.40;;;11.90;99.90;;;;;;4955694;28;20166;-81
2021/12/28 02:53:24;;;;;;;23.23;2.90;;;12.00;99.90;;;;;;4955750;28;20194;-81
2021/12/28 02:55:51;;;;;;;16.00;2.17;;;11.80;99.90;;;;;;4955472;28;20217;-81
2021/12/28 02:58:33;;;;;;;13.48;2.00;;;12.00;99.90;;;;;;4955743;28;20191;-78
2021/12/28 03:01:15;;;;;;;3.92;1.63;;;11.90;99.90;;;;;;4955500;28;20225;-78
2021/12/28 03:03:43;;;;;;;10.85;1.95;;;12.00;99.90;;;;;;4954379;28;20179;-78
2021/12/28 03:06:13;;;;;;;10.48;1.73;;;12.10;99.90;;;;;;4955490;28;20170;-78
2021/12/28 03:08:43;;;;;;;8.02;1.85;;;12.10;99.90;;;;;;4955548;28;20193;-78
2021/12/28 03:11:09;;;;;;;8.45;2.45;;;12.20;99.90;;;;;;4955456;28;20175;-78
2021/12/28 03:13:57;;;;;;;9.68;2.22;;;12.40;99.90;;;;;;4955447;28;20166;-78
2021/12/28 03:16:26;;;;;;;11.90;1.88;;;12.30;99.90;;;;;;4955117;28;20640;-78
2021/12/28 03:18:51;;;;;;;10.57;2.13;;;12.30;99.90;;;;;;4953865;28;20186;-77
2021/12/28 03:21:20;;;;;;;9.38;1.98;;;12.20;99.90;;;;;;4954927;28;20175;-77
2021/12/28 03:23:46;;;;;;;8.60;1.48;;;12.10;99.90;;;;;;4955058;28;20218;-78
2021/12/28 03:26:13;;;;;;;8.85;1.70;;;12.10;99.90;;;;;;4955202;28;20590;-77
2021/12/28 03:28:40;;;;;;;11.98;1.80;;;12.10;99.90;;;;;;4955345;28;20289;-77
2021/12/28 03:31:09;;;;;;;10.48;1.77;;;12.00;99.90;;;;;;4969789;28;20536;-81
2021/12/28 03:33:37;;;;;;;11.45;2.03;;;11.90;99.90;;;;;;4954970;28;20190;-82
2021/12/28 03:36:05;;;;;;;10.35;1.70;;;12.00;99.90;;;;;;4955045;28;20253;-77
2021/12/28 03:38:31;;;;;;;15.60;1.75;;;12.20;99.90;;;;;;4954933;28;20194;-81
2021/12/28 03:40:57;;;;;;;8.50;1.75;;;12.40;99.90;;;;;;4954891;28;20186;-78
2021/12/28 03:43:23;;;;;;;12.48;2.30;;;12.40;99.90;;;;;;4954891;28;20170;-77
2021/12/28 03:45:50;;;;;;;4.65;1.10;;;12.40;99.90;;;;;;4954504;28;20174;-78
2021/12/28 03:48:15;;;;;;;10.52;1.58;;;12.40;99.90;;;;;;4954811;28;20215;-78
2021/12/28 03:50:41;;;;;;;12.02;2.20;;;12.40;99.90;;;;;;4954861;28;20206;-77
2021/12/28 03:53:07;;;;;;;5.07;1.63;;;12.40;99.90;;;;;;4954765;28;20646;-78
2021/12/28 03:55:33;;;;;;;6.72;1.65;;;12.20;99.90;;;;;;4954656;28;20704;-78
2021/12/28 03:58:00;;;;;;;4.53;1.17;;;12.30;99.90;;;;;;4954559;28;20189;-77
2021/12/28 04:00:29;;;;;;;8.35;1.50;;;12.20;99.90;;;;;;4953380;28;20174;-81
2021/12/28 04:02:55;;;;;;;5.80;1.20;;;12.10;99.90;;;;;;4953291;28;20564;-78
2021/12/28 04:05:21;;;;;;;5.05;1.40;;;12.20;99.90;;;;;;4954303;28;20173;-77
2021/12/28 04:07:47;;;;;;;6.90;1.23;;;12.20;99.90;;;;;;4954256;28;20174;-78
2021/12/28 04:10:16;;;;;;;5.65;1.40;;;12.30;99.90;;;;;;4969368;28;20659;-78
2021/12/28 04:12:42;;;;;;;5.18;1.48;;;12.40;99.90;;;;;;4969371;28;20229;-78
2021/12/28 04:15:12;;;;;;;5.95;1.48;;;12.40;99.90;;;;;;4953280;28;20305;-78
2021/12/28 04:17:38;;;;;;;9.07;1.23;;;12.20;99.90;;;;;;4954409;28;20167;-77
2021/12/28 04:20:10;;;;;;;4.05;1.20;;;12.10;99.90;;;;;;4956482;28;20195;-77
2021/12/28 04:22:35;;;;;;;1.23;0.77;;;12.00;99.90;;;;;;4954964;28;20170;-78
2021/12/28 04:25:01;;;;;;;4.20;1.20;;;12.20;99.90;;;;;;4954265;28;20230;-77
2021/12/28 04:27:27;;;;;;;4.03;1.17;;;11.90;99.90;;;;;;4954354;28;20213;-78
2021/12/28 04:29:52;;;;;;;5.78;1.35;;;11.80;99.90;;;;;;4954424;28;20194;-79
2021/12/28 04:32:18;;;;;;;5.25;1.23;;;11.90;99.90;;;;;;4954426;28;20162;-80
2021/12/28 04:34:44;;;;;;;8.05;1.23;;;11.70;99.90;;;;;;4968993;28;20541;-81
2021/12/28 04:37:09;;;;;;;3.47;1.20;;;11.90;99.90;;;;;;4954582;28;20601;-79
2021/12/28 04:39:35;;;;;;;5.63;1.85;;;11.80;99.90;;;;;;4954217;28;20209;-78
2021/12/28 04:42:01;;;;;;;4.05;1.10;;;11.80;99.90;;;;;;4954214;28;20253;-78
2021/12/28 04:44:26;;;;;;;3.65;1.55;;;11.70;99.90;;;;;;4954442;28;20528;-77
2021/12/28 04:46:53;;;;;;;9.50;1.48;;;11.80;99.90;;;;;;4954212;28;20213;-78
2021/12/28 04:49:21;;;;;;;8.60;1.35;;;11.80;99.90;;;;;;4953858;28;20244;-77
2021/12/28 04:51:48;;;;;;;5.10;1.48;;;11.80;99.90;;;;;;4954095;28;20203;-79
2021/12/28 04:54:14;;;;;;;3.72;0.90;;;12.00;99.90;;;;;;4953969;28;20711;-78
2021/12/28 04:56:41;;;;;;;5.93;1.50;;;11.80;99.90;;;;;;4954209;28;20226;-77
2021/12/28 04:59:07;;;;;;;4.32;1.48;;;11.80;99.90;;;;;;4957045;28;20685;-78
2021/12/28 05:01:36;;;;;;;5.63;1.05;;;11.60;99.90;;;;;;4957566;28;20175;-82
2021/12/28 05:04:03;;;;;;;6.97;1.60;;;11.70;99.90;;;;;;4957605;28;20282;-81
2021/12/28 05:06:28;;;;;;;2.90;1.23;;;11.60;99.90;;;;;;4957742;28;20194;-78
2021/12/28 05:08:54;;;;;;;3.33;1.27;;;11.60;99.90;;;;;;4957479;28;20698;-78
2021/12/28 05:11:20;;;;;;;2.72;1.13;;;11.60;99.90;;;;;;4957576;28;20170;-79
2021/12/28 05:13:45;;;;;;;5.45;1.30;;;11.60;99.90;;;;;;4957920;28;20253;-78
2021/12/28 05:16:14;;;;;;;2.53;1.00;;;11.70;99.90;;;;;;4957742;28;20580;-78
2021/12/28 05:18:40;;;;;;;4.32;1.60;;;11.60;99.90;;;;;;4957728;28;20209;-79
2021/12/28 05:21:06;;;;;;;5.10;1.33;;;11.60;99.90;;;;;;4957283;28;20245;-80
2021/12/28 05:23:31;;;;;;;10.10;1.70;;;11.70;99.90;;;;;;4956948;28;20245;-81
2021/12/28 05:25:57;;;;;;;6.65;1.27;;;11.70;99.90;;;;;;4959238;28;20182;-79
2021/12/28 05:28:25;;;;;;;13.18;1.45;;;11.60;99.90;;;;;;4967255;28;20715;-77
2021/12/28 05:30:51;;;;;;;6.60;1.30;;;11.70;99.90;;;;;;4959527;28;20163;-78
2021/12/28 05:33:17;;;;;;;4.50;1.40;;;11.80;99.90;;;;;;4957922;28;20166;-79
2021/12/28 05:35:43;;;;;;;6.15;1.58;;;11.70;99.90;;;;;;4958097;28;20233;-77
2021/12/28 05:38:08;;;;;;;2.13;1.38;;;11.80;99.90;;;;;;4958768;28;20190;-81
2021/12/28 05:40:34;;;;;;;6.63;1.52;;;11.60;99.90;;;;;;4961405;28;20174;-82
2021/12/28 05:43:00;;;;;;;3.50;1.77;;;11.50;99.90;;;;;;4960161;28;20170;-81
2021/12/28 05:45:25;;;;;;;7.00;1.90;;;11.50;99.90;;;;;;4959186;28;20179;-78
2021/12/28 05:47:51;;;;;;;3.72;1.30;;;11.60;99.90;;;;;;4958270;28;20250;-77
2021/12/28 05:50:18;;;;;;;4.55;1.58;;;11.50;99.90;;;;;;4957763;28;20174;-81
2021/12/28 05:52:43;;;;;;;3.15;1.23;;;11.60;99.90;;;;;;4959082;28;20170;-81
2021/12/28 05:55:09;;;;;;;5.50;1.25;;;11.60;99.90;;;;;;4959949;28;20270;-78
2021/12/28 05:57:35;;;;;;;5.07;1.88;;;11.30;99.90;;;;;;4958366;28;20249;-77
2021/12/28 06:00:01;;;;;;;4.53;1.70;;;11.40;99.90;;;;;;4958992;28;20195;-78
2021/12/28 06:02:26;;;;;;;3.67;1.77;;;11.50;99.90;;;;;;4969015;28;20167;-77
2021/12/28 06:04:52;;;;;;;3.85;1.88;;;11.60;99.90;;;;;;4964910;28;20534;-78
2021/12/28 06:07:17;;;;;;;4.20;2.05;;;11.60;99.90;;;;;;4958005;28;20177;-78
2021/12/28 06:09:43;;;;;;;2.58;1.73;;;11.60;99.90;;;;;;4960072;28;20194;-79
2021/12/28 06:12:09;;;;;;;2.42;1.92;;;11.60;99.90;;;;;;4958740;28;20189;-80
2021/12/28 06:14:35;;;;;;;2.28;1.58;;;11.60;99.90;;;;;;4958961;28;20198;-79
2021/12/28 06:17:00;;;;;;;7.13;1.60;;;11.60;99.90;;;;;;4958015;28;20702;-80
2021/12/28 06:19:26;;;;;;;2.67;1.65;;;11.80;99.90;;;;;;4956580;28;20202;-79
2021/12/28 06:21:51;;;;;;;2.53;1.90;;;11.60;99.90;;;;;;4956920;28;20599;-79
2021/12/28 06:24:17;;;;;;;4.05;1.98;;;11.50;99.90;;;;;;4957277;28;20174;-82
2021/12/28 06:26:43;;;;;;;4.35;1.70;;;11.50;99.90;;;;;;4956971;28;20529;-78
2021/12/28 06:29:08;;;;;;;2.28;1.60;;;11.50;99.90;;;;;;4956342;28;20183;-78
2021/12/28 06:31:35;;;;;;;6.28;1.85;;;11.60;99.90;;;;;;4956071;28;20254;-78
2021/12/28 06:34:02;;;;;;;4.07;2.53;;;11.60;99.90;;;;;;4955734;28;20163;-79
2021/12/28 06:36:28;;;;;;;2.63;2.42;;;11.70;99.90;;;;;;4955474;28;20179;-78
2021/12/28 06:38:54;;;;;;;5.35;2.30;;;11.70;99.90;;;;;;4955946;28;20659;-78
2021/12/28 06:41:20;;;;;;;2.67;2.28;;;11.90;99.90;;;;;;4956048;28;20239;-81
2021/12/28 06:43:47;;;;;;;2.67;2.10;;;11.70;99.90;;;;;;4955933;28;20170;-79
2021/12/28 06:46:13;;;;;;;5.68;1.88;;;11.70;99.90;;;;;;4955744;28;20174;-78
2021/12/28 06:48:39;;;;;;;2.72;2.30;;;11.50;99.90;;;;;;4955193;28;20195;-79
2021/12/28 06:51:06;;;;;;;2.70;2.13;;;11.60;99.90;;;;;;4955359;28;20181;-79
2021/12/28 06:53:32;;;;;;;2.47;2.05;;;11.60;99.90;;;;;;4955276;28;20202;-79
2021/12/28 06:55:57;;;;;;;3.72;2.65;;;11.60;99.90;;;;;;4954455;28;20655;-81
2021/12/28 06:58:23;;;;;;;2.05;1.90;;;11.60;99.90;;;;;;4954249;28;20270;-78
2021/12/28 07:00:49;;;;;;;3.47;1.95;;;11.60;99.90;;;;;;4954516;28;20167;-80
2021/12/28 07:03:14;;;;;;;3.38;1.92;;;11.70;99.90;;;;;;4954829;28;20178;-79
2021/12/28 07:05:40;;;;;;;3.45;2.22;;;11.70;99.90;;;;;;4954372;28;20636;-78
2021/12/28 07:08:05;;;;;;;3.35;2.53;;;11.40;99.90;;;;;;4954159;28;20189;-81
2021/12/28 07:10:31;;;;;;;2.33;2.13;;;11.50;99.90;;;;;;4952983;28;20739;-79
2021/12/28 07:12:57;;;;;;;3.78;2.95;;;11.30;99.90;;;;;;4954216;28;20226;-79
2021/12/28 07:15:23;;;;;;;3.92;2.50;;;11.30;99.90;;;;;;4954224;28;20547;-79
2021/12/28 07:17:49;;;;;;;2.80;2.60;;;11.30;99.90;;;;;;4954112;28;20205;-79
2021/12/28 07:20:16;;;;;;;6.75;2.90;;;11.30;99.90;;;;;;4953492;28;20600;-79
2021/12/28 07:22:42;;;;;;;3.60;2.75;;;11.30;99.90;;;;;;4954155;28;20551;-82
2021/12/28 07:25:10;;;;;;;3.60;2.75;;;11.50;99.90;;;;;;4953902;28;20588;-80
2021/12/28 07:27:37;;;;;;;5.40;2.70;;;11.40;99.90;;;;;;4954145;28;20171;-81
2021/12/28 07:30:07;;;;;;;4.28;3.03;;;11.50;99.90;;;;;;4954078;28;20202;-80
2021/12/28 07:32:33;;;;;;;6.18;2.40;;;11.50;99.90;;;;;;4953823;28;20181;-81
2021/12/28 07:34:58;;;;;;;4.00;2.33;;;11.60;99.90;;;;;;4952381;28;20569;-81
2021/12/28 07:37:24;;;;;;;3.53;2.10;;;11.70;99.90;;;;;;4952600;28;20171;-80
2021/12/28 07:39:50;;;;;;;3.03;2.00;;;11.90;99.90;;;;;;4953831;28;20273;-79
2021/12/28 07:42:17;;;;;;;2.90;1.98;;;11.80;99.90;;;;;;4953872;28;20530;-79
2021/12/28 07:44:43;;;;;;;2.53;1.75;;;11.70;99.90;;;;;;4876179;28;20650;-78
2021/12/28 07:47:09;;;;;;;2.25;2.05;;;11.70;99.90;;;;;;4912198;28;20659;-79
2021/12/28 07:49:35;;;;;;;2.50;1.88;;;11.60;99.90;;;;;;4953898;28;20195;-78
2021/12/28 07:52:00;;;;;;;3.38;2.08;;;11.50;99.90;;;;;;4953816;28;20178;-81
2021/12/28 07:54:26;;;;;;;2.13;1.90;;;11.60;99.90;;;;;;4916570;28;1091172;-78
2021/12/28 07:56:52;;;;;;;5.18;1.75;;;11.60;99.90;;;;;;4954273;28;20170;-79
2021/12/28 07:59:17;;;;;;;6.80;2.10;;;11.70;99.90;;;;;;4954345;28;20190;-76
2021/12/28 08:01:43;;;;;;;4.55;2.35;;;11.70;99.90;;;;;;4954260;28;20175;-80
2021/12/28 08:04:08;;;;;;;3.28;1.90;;;11.90;99.90;;;;;;4954327;28;20256;-78
2021/12/28 08:06:34;;;;;;;2.05;1.80;;;11.80;99.90;;;;;;4954262;28;20171;-77
2021/12/28 08:08:59;;;;;;;2.85;1.95;;;11.90;99.90;;;;;;4952568;28;20409;-78
2021/12/28 08:11:25;;;;;;;2.40;2.20;;;11.90;99.90;;;;;;4954484;28;20166;-77
2021/12/28 08:13:51;;;;;;;2.65;2.45;;;11.80;99.90;;;;;;4954424;28;20171;-78
2021/12/28 08:16:17;;;;;;;2.03;1.88;;;11.80;99.90;;;;;;4945591;28;20289;-79
2021/12/28 08:18:43;;;;;;;4.65;2.50;;;11.80;99.90;;;;;;4964383;28;20197;-81
2021/12/28 08:21:08;;;;;;;2.35;1.80;;;11.80;99.90;;;;;;4953708;28;20181;-82
2021/12/28 08:23:34;;;;;;;2.03;1.80;;;11.70;99.90;;;;;;4953649;28;20201;-80
2021/12/28 08:25:59;;;;;;;1.83;1.40;;;11.70;99.90;;;;;;4961199;28;20229;-81
2021/12/28 08:28:25;;;;;;;7.85;1.80;;;11.70;99.90;;;;;;4988250;28;20225;-80
2021/12/28 08:30:51;;;;;;;2.60;1.45;;;11.70;99.90;;;;;;4956914;28;20213;-80
2021/12/28 08:33:17;;;;;;;1.95;1.50;;;11.80;99.90;;;;;;4955319;28;20199;-82
2021/12/28 08:35:42;;;;;;;1.38;1.27;;;11.80;99.90;;;;;;4957096;28;20217;-81
2021/12/28 08:38:11;;;;;;;1.55;1.27;;;11.80;99.90;;;;;;4955761;28;20198;-80
2021/12/28 08:40:40;;;;;;;2.17;1.48;;;11.80;99.90;;;;;;4957709;28;20205;-78
2021/12/28 08:43:06;;;;;;;2.47;1.73;;;11.70;99.90;;;;;;4971929;28;20270;-80
2021/12/28 08:45:33;;;;;;;4.55;1.40;;;11.70;99.90;;;;;;4956993;28;20174;-80
2021/12/28 08:47:59;;;;;;;1.10;1.00;;;11.70;99.90;;;;;;4959039;28;20204;-81
2021/12/28 08:50:25;;;;;;;2.90;1.20;;;11.60;99.90;;;;;;4938287;29;20625;-81
2021/12/28 08:52:51;;;;;;;1.42;1.33;;;11.70;99.90;;;;;;4937782;29;20178;-80
2021/12/28 08:55:18;;;;;;;1.40;1.30;;;11.70;99.90;;;;;;4937759;29;20207;-82
2021/12/28 08:57:45;;;;;;;1.30;1.20;;;11.70;99.90;;;;;;4937620;29;20163;-80
2021/12/28 09:00:14;;;;;;;4.88;1.40;;;11.80;99.90;;;;;;4937547;29;20253;-79
2021/12/28 09:02:40;;;;;;;1.60;1.50;;;11.60;99.90;;;;;;4937558;29;20183;-80
2021/12/28 09:05:06;;;;;;;2.67;1.38;;;11.80;99.90;;;;;;4937787;29;20186;-80
2021/12/28 09:07:32;;;;;;;1.40;1.30;;;11.80;99.90;;;;;;4952306;28;20163;-79
2021/12/28 09:09:59;;;;;;;3.20;1.20;;;11.90;99.90;;;;;;4937184;29;20213;-79
2021/12/28 09:12:24;;;;;;;3.40;1.20;;;11.90;99.90;;;;;;4937182;29;20175;-79
2021/12/28 09:14:50;;;;;;;1.73;1.27;;;11.90;99.90;;;;;;4937600;29;20286;-79
2021/12/28 09:17:16;;;;;;;1.30;1.20;;;12.00;99.90;;;;;;4937571;29;20222;-79
2021/12/28 09:19:41;;;;;;;1.20;1.02;;;11.90;99.90;;;;;;4937618;29;20214;-79
2021/12/28 09:22:07;;;;;;;3.17;1.10;;;12.00;99.90;;;;;;4958196;28;20182;-80
2021/12/28 09:24:33;;;;;;;2.13;1.45;;;12.10;99.90;;;;;;4954382;28;20183;-79
2021/12/28 09:26:59;;;;;;;3.70;1.48;;;12.00;99.90;;;;;;4959906;28;20189;-79
2021/12/28 09:29:29;;;;;;;1.20;1.10;;;12.10;99.90;;;;;;4965053;28;20198;-78
2021/12/28 09:31:56;;;;;;;1.30;1.20;;;12.00;99.90;;;;;;4959171;28;20179;-78
2021/12/28 09:34:21;;;;;;;1.98;1.15;;;11.80;99.90;;;;;;4971762;28;20178;-78
2021/12/28 09:36:47;;;;;;;3.25;1.10;;;11.80;99.90;;;;;;4972403;28;20190;-78
2021/12/28 09:39:13;;;;;;;1.33;1.23;;;12.00;99.90;;;;;;4956038;28;20273;-78
2021/12/28 09:41:39;;;;;;;5.35;1.40;;;12.10;99.90;;;;;;4956320;28;20182;-78
2021/12/28 09:44:05;;;;;;;2.17;1.40;;;12.00;99.90;;;;;;4970730;28;20193;-81
2021/12/28 09:46:31;;;;;;;1.50;1.13;;;12.10;99.90;;;;;;4956194;28;20261;-79
2021/12/28 09:48:57;;;;;;;4.70;1.60;;;12.10;99.90;;;;;;4956243;28;20249;-80
2021/12/28 09:51:22;;;;;;;1.73;1.20;;;12.10;99.90;;;;;;4956241;28;20249;-80
2021/12/28 09:53:50;;;;;;;1.95;1.25;;;12.10;99.90;;;;;;4956190;28;20177;-79
2021/12/28 09:56:16;;;;;;;1.25;1.10;;;12.00;99.90;;;;;;4955612;28;20202;-79
2021/12/28 09:58:41;;;;;;;2.65;1.40;;;12.00;99.90;;;;;;4970643;28;20313;-80
2021/12/28 10:01:09;;;;;;;1.08;0.90;;;12.00;99.90;;;;;;4955614;28;20163;-79
2021/12/28 10:03:35;;;;;;;1.10;1.00;;;12.10;99.90;;;;;;4955536;28;20608;-79
2021/12/28 10:06:25;;;;;;;1.67;0.82;;;11.90;99.90;;;;;;4972775;28;20167;-79
2021/12/28 10:09:11;;;;;;;1.02;0.90;;;12.10;99.90;;;;;;4970868;28;20659;-79
2021/12/28 10:11:44;;;;;;;3.08;1.08;;;12.10;99.90;;;;;;4956171;28;20216;-79
2021/12/28 10:14:17;;;;;;;0.85;0.70;;;12.20;99.90;;;;;;4956652;28;20190;-79
2021/12/28 10:16:50;;;;;;;0.75;0.70;;;12.20;99.90;;;;;;4954776;28;20171;-79
2021/12/28 10:19:51;;;;;;;1.10;0.80;;;12.20;99.90;;;;;;4971950;28;20187;-78
2021/12/28 10:22:19;;;;;;;0.80;0.52;;;12.30;99.90;;;;;;4953041;28;20239;-78
2021/12/28 10:24:46;;;;;;;0.60;0.60;;;12.10;99.90;;;;;;4955242;28;20201;-78
2021/12/28 10:27:15;;;;;;;0.93;0.50;;;11.90;99.90;;;;;;4955825;28;20233;-77
2021/12/28 10:29:41;;;;;;;8.68;1.23;;;11.80;99.90;;;;;;4955659;28;20194;-78
2021/12/28 10:32:20;;;;;;;6.15;1.52;;;11.60;99.90;;;;;;4970742;28;20514;-77
2021/12/28 10:34:52;;;;;;;5.75;1.40;;;11.50;99.90;;;;;;4955941;28;20190;-79
2021/12/28 10:37:23;;;;;;;15.85;1.98;;;11.50;99.90;;;;;;4970727;28;20257;-79
2021/12/28 10:39:51;;;;;;;10.43;1.65;;;11.60;99.90;;;;;;4955083;28;20527;-77
2021/12/28 10:43:07;;;;;;;10.75;1.77;;;11.60;99.90;;;;;;4944051;28;20219;-78
2021/12/28 10:45:42;;;;;;;16.30;2.47;;;11.50;99.90;;;;;;4946279;28;20210;-78
2021/12/28 10:48:18;;;;;;;18.35;3.10;;;11.50;99.90;;;;;;4950002;28;20202;-79
2021/12/28 10:51:13;;;;;;;19.17;3.50;;;11.60;99.90;;;;;;4957122;28;20193;-79
2021/12/28 10:54:12;;;;;;;22.65;3.60;;;11.60;99.90;;;;;;4955358;28;20183;-78
2021/12/28 10:56:56;;;;;;;17.77;3.67;;;11.50;99.90;;;;;;4971888;28;20185;-79
2021/12/28 10:59:25;;;;;;;13.98;3.08;;;11.60;99.90;;;;;;4983928;28;20280;-78
2021/12/28 11:01:51;;;;;;;27.38;5.00;;;11.60;99.90;;;;;;4956409;28;20162;-78
2021/12/28 11:04:18;;;;;;;30.55;5.03;;;11.70;99.90;;;;;;4972057;28;20166;-79
2021/12/28 11:06:47;;;;;;;20.95;3.45;;;11.70;99.90;;;;;;4964302;28;20181;-78
2021/12/28 11:09:31;;;;;;;25.70;4.65;;;11.90;99.90;;;;;;4968216;28;20178;-80
2021/12/28 11:11:58;;;;;;;26.42;4.07;;;12.00;99.90;;;;;;4956259;28;20207;-79
2021/12/28 11:14:28;;;;;;;25.67;5.00;;;12.00;99.90;;;;;;4955407;28;20159;-79
2021/12/28 11:16:59;;;;;;;29.63;5.07;;;11.90;99.90;;;;;;4954998;28;20166;-80
2021/12/28 11:19:27;;;;;;;21.80;3.97;;;12.00;99.90;;;;;;4954845;28;20190;-79
2021/12/28 11:21:56;;;;;;;29.58;3.95;;;12.00;99.90;;;;;;4954546;28;20214;-80
2021/12/28 11:24:27;;;;;;;31.75;4.03;;;11.90;99.90;;;;;;4954711;28;20166;-79
2021/12/28 11:26:53;;;;;;;30.00;5.03;;;11.90;99.90;;;;;;4954716;28;20170;-79
2021/12/28 11:29:28;;;;;;;26.83;4.97;;;12.00;99.90;;;;;;4954179;28;20198;-78
2021/12/28 11:31:58;;;;;;;20.05;4.38;;;12.00;99.90;;;;;;4954805;28;20165;-80
2021/12/28 11:34:33;;;;;;;36.40;4.50;;;12.10;99.90;;;;;;4954444;28;20162;-78
2021/12/28 11:37:03;;;;;;;27.35;4.25;;;12.10;99.90;;;;;;4954756;28;20533;-79
2021/12/28 11:39:33;;;;;;;27.80;5.40;;;12.00;99.90;;;;;;4969403;28;20261;-78
2021/12/28 11:42:01;;;;;;;34.92;4.53;;;12.00;99.90;;;;;;4954743;28;20242;-78
2021/12/28 11:44:28;;;;;;;30.25;4.85;;;12.00;99.90;;;;;;4954470;28;20533;-78
2021/12/28 11:46:55;;;;;;;31.05;4.75;;;12.10;99.90;;;;;;4954383;28;20205;-78
2021/12/28 11:49:25;;;;;;;29.40;5.60;;;11.90;99.90;;;;;;4969009;28;20649;-78
2021/12/28 11:51:53;;;;;;;30.33;5.25;;;11.90;99.90;;;;;;4954652;28;20179;-78
2021/12/28 11:54:21;;;;;;;25.88;4.47;;;12.00;99.90;;;;;;4972618;23;20217;-79
2021/12/28 11:56:52;;;;;;;24.55;4.10;;;11.90;99.90;;;;;;4973154;28;20185;-84
2021/12/28 11:59:20;;;;;;;37.38;4.63;;;12.00;99.90;;;;;;4974046;28;20194;-80
2021/12/28 12:01:51;;;;;;;41.20;6.75;;;12.00;99.90;;;;;;4974380;28;20627;-77
2021/12/28 12:04:32;;;;;;;42.55;5.95;;;12.10;99.90;;;;;;4973235;28;20352;-79
2021/12/28 12:07:16;;;;;;;27.80;5.93;;;12.20;99.90;;;;;;4973737;28;20173;-76
2021/12/28 12:09:54;;;;;;;34.58;5.43;;;12.20;99.90;;;;;;4972624;28;20217;-77
2021/12/28 12:12:25;;;;;;;31.23;5.28;;;12.30;99.90;;;;;;4973968;28;20228;-78
2021/12/28 12:14:54;;;;;;;27.83;4.53;;;12.40;99.90;;;;;;4974184;28;20216;-76
2021/12/28 12:17:37;;;;;;;35.05;5.85;;;12.50;99.90;;;;;;4974193;28;20186;-83
2021/12/28 12:20:08;;;;;;;37.50;5.93;;;12.50;99.90;;;;;;4972901;28;20236;-79
2021/12/28 12:22:40;;;;;;;21.35;4.10;;;12.50;99.90;;;;;;4974387;28;20174;-84
2021/12/28 12:25:07;;;;;;;38.47;6.03;;;12.40;99.90;;;;;;4974603;28;20173;-85
2021/12/28 12:27:55;;;;;;;32.67;5.68;;;12.20;99.90;;;;;;4974285;28;20174;-84
2021/12/28 12:30:20;;;;;;;24.83;4.20;;;12.30;99.90;;;;;;4974494;28;20201;-80
2021/12/28 12:33:07;;;;;;;22.63;2.92;;;12.00;99.90;;;;;;4974097;28;20204;-79
2021/12/28 12:35:42;;;;;;;28.13;4.53;;;11.90;99.90;;;;;;4974275;28;20256;-78
2021/12/28 12:38:16;;;;;;;21.88;4.38;;;11.80;99.90;;;;;;4973148;28;20193;-85
2021/12/28 12:41:04;;;;;;;17.80;3.33;;;11.90;99.90;;;;;;4974048;28;20169;-87
2021/12/28 12:43:39;;;;;;;22.58;4.13;;;11.90;99.90;;;;;;4974153;28;20705;-77
2021/12/28 12:46:17;;;;;;;24.83;4.05;;;11.80;99.90;;;;;;4973647;28;20245;-87
2021/12/28 12:48:42;;;;;;;20.23;3.67;;;11.80;99.90;;;;;;4973993;28;20212;-77
2021/12/28 12:51:23;;;;;;;25.23;5.18;;;11.90;99.90;;;;;;4974263;28;20536;-78